HEAR

El Arish International Airport

El Arish, Egypt
TAF HEAR 201100Z 2012/2118 34009KT CAVOK BECMG 2016/2018 VRB03KT BECMG 2106/2108 36008KT
Issued Valid From Valid To
Jul-20 @ 11:00 UTC
(3 hours ago)
Jul-20 @ 12:00 UTC
(2 hours ago)
Jul-21 @ 18:00 UTC
(-1 days ago)
Jul-20 @ 12:00 to Jul-20 @ 16:00
TAF HEAR 201100Z 2012/2118 34009KT CAVOK
Wind Visibility Clouds Conditions
340° at 9 knots 10,000+ meters
  • No significant clouds
Becoming Jul-20 @ 16:00 to Jul-21 @ 06:00
BECMG 2016/2018 VRB03KT
Wind Visibility Clouds Conditions
Variable at 3 knots 10,000+ meters
  • No significant clouds
Becoming Jul-21 @ 06:00 to Jul-21 @ 18:00
BECMG 2106/2108 36008KT
Wind Visibility Clouds Conditions
360° at 8 knots 10,000+ meters
  • No significant clouds
TAF HEAR 201100Z 2012/2118 34009KT CAVOK BECMG 2016/2018 VRB03KT BECMG 2106/2108 36008KT
Issued Jul-20 @ 11:00 UTC
(3 hours ago)
Valid From Jul-20 @ 12:00 UTC
(2 hours ago)
Valid To Jul-21 @ 18:00 UTC
(-1 days ago)
Jul-20 @ 12:00 - Jul-20 @ 16:00
Wind Visibility
340° at 9 knots 10,000+ meters
Clouds
  • No significant clouds
Conditions
Becoming Jul-20 @ 16:00 - Jul-21 @ 06:00
Wind Visibility
Variable at 3 knots 10,000+ meters
Clouds
  • No significant clouds
Conditions
Becoming Jul-21 @ 06:00 - Jul-21 @ 18:00
Wind Visibility
360° at 8 knots 10,000+ meters
Clouds
  • No significant clouds
Conditions